createdAt,value
2023-03-26T00:00:14.800Z,9.00
2023-03-26T00:02:42.940Z,9.00
2023-03-26T00:05:14.531Z,9.00
2023-03-26T00:07:42.688Z,9.00
2023-03-26T00:10:11.465Z,9.00
2023-03-26T00:12:40.950Z,9.00
2023-03-26T00:15:10.502Z,9.00
2023-03-26T00:17:39.252Z,9.00
2023-03-26T00:20:09.248Z,9.00
2023-03-26T00:22:53.476Z,9.00
2023-03-26T00:25:21.783Z,9.00
2023-03-26T00:27:51.478Z,9.10
2023-03-26T00:30:19.608Z,9.10
2023-03-26T00:32:53.647Z,9.10
2023-03-26T00:35:22.475Z,9.00
2023-03-26T00:37:51.535Z,9.10
2023-03-26T00:40:19.785Z,9.20
2023-03-26T00:42:47.820Z,9.20
2023-03-26T00:45:21.423Z,9.30
2023-03-26T00:47:50.136Z,9.20
2023-03-26T00:50:19.409Z,9.20
2023-03-26T00:52:47.608Z,9.20
2023-03-26T00:55:16.184Z,9.20
2023-03-26T00:57:46.022Z,9.20
2023-03-26T01:00:17.172Z,9.30
2023-03-26T01:02:46.396Z,9.30
2023-03-26T01:05:44.190Z,9.30
2023-03-26T01:08:20.860Z,9.30
2023-03-26T01:10:50.961Z,9.30
2023-03-26T01:13:20.653Z,9.30
2023-03-26T01:15:53.136Z,9.30
2023-03-26T01:18:26.519Z,9.20
2023-03-26T01:21:05.183Z,9.30
2023-03-26T01:23:41.159Z,9.30
2023-03-26T01:26:21.365Z,9.30
2023-03-26T01:28:49.747Z,9.30
2023-03-26T01:31:29.826Z,9.30
2023-03-26T01:34:03.770Z,9.30
2023-03-26T01:36:43.157Z,9.30
2023-03-26T01:39:18.857Z,9.30
2023-03-26T01:41:53.109Z,9.20
2023-03-26T01:44:28.956Z,9.20
2023-03-26T01:46:59.671Z,9.20
2023-03-26T01:49:29.262Z,9.20
2023-03-26T01:51:58.872Z,9.20
2023-03-26T01:54:30.630Z,9.20
2023-03-26T01:57:10.851Z,9.20
2023-03-26T02:00:16.685Z,9.10
2023-03-26T02:02:56.697Z,9.10
2023-03-26T02:05:30.141Z,9.10
2023-03-26T02:08:06.201Z,9.10
2023-03-26T02:10:40.500Z,9.30
2023-03-26T02:13:10.120Z,9.00
2023-03-26T02:15:38.482Z,9.00
2023-03-26T02:18:06.972Z,8.90
2023-03-26T02:20:34.910Z,9.00
2023-03-26T02:23:02.936Z,9.10
2023-03-26T02:25:30.938Z,9.10
2023-03-26T02:27:58.912Z,9.00
2023-03-26T02:30:29.701Z,9.00
2023-03-26T02:32:59.358Z,9.00
2023-03-26T02:35:27.704Z,9.00
2023-03-26T02:37:55.716Z,9.00
2023-03-26T02:40:25.014Z,9.00
2023-03-26T02:42:52.944Z,8.90
2023-03-26T02:45:21.007Z,8.90
2023-03-26T02:47:51.058Z,8.90
2023-03-26T02:50:19.371Z,8.90
2023-03-26T02:52:49.787Z,8.80
2023-03-26T02:55:17.910Z,8.80
2023-03-26T02:57:46.018Z,8.70
2023-03-26T03:00:17.075Z,8.60
2023-03-26T03:02:47.970Z,8.50
2023-03-26T03:05:18.170Z,8.40
2023-03-26T03:07:46.559Z,8.30
2023-03-26T03:10:15.686Z,8.30
2023-03-26T03:12:44.129Z,8.30
2023-03-26T03:15:13.185Z,8.30
2023-03-26T03:17:41.601Z,8.20
2023-03-26T03:20:10.840Z,8.20
2023-03-26T03:22:40.707Z,8.20
2023-03-26T03:25:14.195Z,8.10
2023-03-26T03:27:42.987Z,8.00
2023-03-26T03:30:13.505Z,8.00
2023-03-26T03:32:41.656Z,7.90
2023-03-26T03:35:10.298Z,7.90
2023-03-26T03:37:39.653Z,7.90
2023-03-26T03:40:10.755Z,7.90
2023-03-26T03:42:38.818Z,8.00
2023-03-26T03:45:07.952Z,8.00
2023-03-26T03:47:35.880Z,8.00
2023-03-26T03:50:04.084Z,8.00
2023-03-26T03:52:32.045Z,8.10
2023-03-26T03:55:01.469Z,8.10
2023-03-26T03:57:32.101Z,8.30
2023-03-26T04:00:00.183Z,8.20
2023-03-26T04:02:30.499Z,8.40
2023-03-26T04:04:58.851Z,8.40
2023-03-26T04:07:27.180Z,8.10
2023-03-26T04:09:55.134Z,8.10
2023-03-26T04:12:24.421Z,8.00
2023-03-26T04:14:52.342Z,7.90
2023-03-26T04:17:21.881Z,7.30
2023-03-26T04:19:50.265Z,7.90
2023-03-26T04:22:21.601Z,7.90
2023-03-26T04:24:50.208Z,7.80
2023-03-26T04:27:20.536Z,7.80
2023-03-26T04:29:50.757Z,8.00
2023-03-26T04:32:26.595Z,7.80
2023-03-26T04:34:54.875Z,7.70
2023-03-26T04:37:27.688Z,7.70
2023-03-26T04:39:56.009Z,7.70
2023-03-26T04:42:24.004Z,7.70
2023-03-26T04:44:53.236Z,7.70
2023-03-26T04:47:21.372Z,7.60
2023-03-26T04:49:49.326Z,7.60
2023-03-26T04:52:17.329Z,7.70
2023-03-26T04:54:46.456Z,7.60
2023-03-26T04:57:20.106Z,7.60
2023-03-26T04:59:48.125Z,7.70
2023-03-26T05:02:18.889Z,7.70
2023-03-26T05:04:47.019Z,7.80
2023-03-26T05:07:18.709Z,7.80
2023-03-26T05:09:46.689Z,8.00
2023-03-26T05:12:14.654Z,8.10
2023-03-26T05:14:42.580Z,8.10
2023-03-26T05:17:18.890Z,8.10
2023-03-26T05:19:48.303Z,8.10
2023-03-26T05:22:16.228Z,8.20
2023-03-26T05:24:44.125Z,8.20
2023-03-26T05:27:16.911Z,8.20
2023-03-26T05:29:45.293Z,8.30
2023-03-26T05:32:13.224Z,8.30
2023-03-26T05:34:41.608Z,8.50
2023-03-26T05:37:10.885Z,8.80
2023-03-26T05:39:39.004Z,8.80
2023-03-26T05:42:07.844Z,8.70
2023-03-26T05:44:35.780Z,8.70
2023-03-26T05:47:04.034Z,8.70
2023-03-26T05:49:31.980Z,8.80
2023-03-26T05:51:59.930Z,8.70
2023-03-26T05:54:29.361Z,8.70
2023-03-26T05:56:57.416Z,8.70
2023-03-26T05:59:25.573Z,8.80
2023-03-26T06:01:54.754Z,8.90
2023-03-26T06:04:22.833Z,9.10
2023-03-26T06:06:52.692Z,9.00
2023-03-26T06:09:21.765Z,9.20
2023-03-26T06:11:51.642Z,9.40
2023-03-26T06:14:19.533Z,9.70
2023-03-26T06:16:47.391Z,10.00
2023-03-26T06:19:15.777Z,10.30
2023-03-26T06:21:43.809Z,10.40
2023-03-26T06:24:11.805Z,10.20
2023-03-26T06:26:39.786Z,10.00
2023-03-26T06:29:09.225Z,9.70
2023-03-26T06:31:37.148Z,9.50
2023-03-26T06:34:05.280Z,9.30
2023-03-26T06:36:33.281Z,9.20
2023-03-26T06:39:01.432Z,9.20
2023-03-26T06:41:36.242Z,9.20
2023-03-26T06:44:04.184Z,9.10
2023-03-26T06:46:33.612Z,9.10
2023-03-26T06:49:01.609Z,9.00
2023-03-26T06:51:29.733Z,9.00
2023-03-26T06:53:57.633Z,8.90
2023-03-26T06:56:25.535Z,8.90
2023-03-26T06:58:53.754Z,8.90
2023-03-26T07:01:21.788Z,9.10
2023-03-26T07:03:51.137Z,9.20
2023-03-26T07:06:19.102Z,9.60
2023-03-26T07:08:47.014Z,9.30
2023-03-26T07:11:16.639Z,9.40
2023-03-26T07:13:45.872Z,9.40
2023-03-26T07:16:14.108Z,9.40
2023-03-26T07:18:42.015Z,9.30
2023-03-26T07:21:12.843Z,9.20
2023-03-26T07:23:41.269Z,9.20
2023-03-26T07:26:23.217Z,9.10
2023-03-26T07:29:04.635Z,9.10
2023-03-26T07:31:39.043Z,9.00
2023-03-26T07:34:32.681Z,9.00
2023-03-26T07:37:06.629Z,9.00
2023-03-26T07:39:43.835Z,9.00
2023-03-26T07:42:24.063Z,9.00
2023-03-26T07:44:59.007Z,9.00
2023-03-26T07:47:31.555Z,9.10
2023-03-26T07:49:59.914Z,9.20
2023-03-26T07:52:29.846Z,9.20
2023-03-26T07:54:58.430Z,9.20
2023-03-26T07:57:44.216Z,9.20
2023-03-26T08:00:18.394Z,9.20
2023-03-26T08:03:12.171Z,9.20
2023-03-26T08:05:49.162Z,9.20
2023-03-26T08:08:25.729Z,9.20
2023-03-26T08:11:08.001Z,9.10
2023-03-26T08:13:49.146Z,9.10
2023-03-26T08:16:24.787Z,9.00
2023-03-26T08:19:00.654Z,9.00
2023-03-26T08:21:33.838Z,9.00
2023-03-26T08:24:10.998Z,8.90
2023-03-26T08:26:48.976Z,9.60
2023-03-26T08:29:24.994Z,8.80
2023-03-26T08:31:53.886Z,9.40
2023-03-26T08:34:21.980Z,8.60
2023-03-26T08:36:49.927Z,8.60
2023-03-26T08:39:19.706Z,8.50
2023-03-26T08:42:15.418Z,8.30
2023-03-26T08:45:11.712Z,8.20
2023-03-26T08:48:22.530Z,8.20
2023-03-26T08:51:23.271Z,8.20
2023-03-26T08:54:28.154Z,8.10
2023-03-26T08:57:09.996Z,8.00
2023-03-26T09:00:15.612Z,8.00
2023-03-26T09:03:13.593Z,8.00
2023-03-26T09:06:06.331Z,8.00
2023-03-26T09:09:05.574Z,8.00
2023-03-26T09:12:07.045Z,8.00
2023-03-26T09:15:03.362Z,8.00
2023-03-26T09:17:55.950Z,8.00
2023-03-26T09:21:09.703Z,8.00
2023-03-26T09:24:19.358Z,8.10
2023-03-26T09:27:00.357Z,8.10
2023-03-26T09:30:02.195Z,8.10
2023-03-26T09:33:01.774Z,8.20
2023-03-26T09:35:51.996Z,8.40
2023-03-26T09:38:35.114Z,8.30
2023-03-26T09:41:09.427Z,8.40
2023-03-26T09:44:13.498Z,8.40
2023-03-26T09:46:52.137Z,8.40
2023-03-26T09:49:36.243Z,8.30
2023-03-26T09:52:15.361Z,8.30
2023-03-26T09:55:15.450Z,8.30
2023-03-26T09:58:02.869Z,8.30
2023-03-26T10:00:42.722Z,8.20
2023-03-26T10:03:29.294Z,8.10
2023-03-26T10:06:06.805Z,8.80
2023-03-26T10:08:44.427Z,8.00
2023-03-26T10:11:19.798Z,8.00
2023-03-26T10:14:09.953Z,8.40
2023-03-26T10:16:54.710Z,8.20
2023-03-26T10:19:40.310Z,8.30
2023-03-26T10:22:23.830Z,8.30
2023-03-26T10:25:36.349Z,8.20
2023-03-26T10:28:14.652Z,8.20
2023-03-26T10:31:06.023Z,8.10
2023-03-26T10:33:42.937Z,8.20
2023-03-26T10:36:26.878Z,8.10
2023-03-26T10:39:37.793Z,8.20
2023-03-26T10:42:16.750Z,8.30
2023-03-26T10:45:09.596Z,8.00
2023-03-26T10:48:07.131Z,8.00
2023-03-26T10:51:05.128Z,7.90
2023-03-26T10:53:39.973Z,7.90
2023-03-26T10:56:18.249Z,7.80
2023-03-26T10:58:49.908Z,7.80
2023-03-26T11:01:29.771Z,7.80
2023-03-26T11:04:01.807Z,7.80
2023-03-26T11:06:41.907Z,7.90
2023-03-26T11:09:23.008Z,8.00
2023-03-26T11:11:58.947Z,8.00
2023-03-26T11:14:34.764Z,8.00
2023-03-26T11:17:14.460Z,8.00
2023-03-26T11:20:06.277Z,7.90
2023-03-26T11:22:44.327Z,7.70
2023-03-26T11:25:35.940Z,7.80
2023-03-26T11:28:19.436Z,7.90
2023-03-26T11:30:54.257Z,7.90
2023-03-26T11:33:25.889Z,8.00
2023-03-26T11:36:03.766Z,8.10
2023-03-26T11:38:38.373Z,8.30
2023-03-26T11:41:13.232Z,8.40
2023-03-26T11:43:41.267Z,8.30
2023-03-26T11:46:13.517Z,8.40
2023-03-26T11:48:44.663Z,8.60
2023-03-26T11:51:18.545Z,8.90
2023-03-26T11:53:48.000Z,9.10
2023-03-26T11:56:24.140Z,9.00
2023-03-26T11:58:56.833Z,8.90
2023-03-26T12:01:30.326Z,8.90
2023-03-26T12:04:04.153Z,9.00
2023-03-26T12:06:32.952Z,9.20
2023-03-26T12:09:02.678Z,9.30
2023-03-26T12:11:35.435Z,9.40
2023-03-26T12:14:05.893Z,9.40
2023-03-26T12:16:36.044Z,9.40
2023-03-26T12:19:08.105Z,9.40
2023-03-26T12:21:46.895Z,9.60
2023-03-26T12:24:30.324Z,9.80
2023-03-26T12:27:02.071Z,10.10
2023-03-26T12:29:34.319Z,10.50
2023-03-26T12:32:08.341Z,10.80
2023-03-26T12:34:39.383Z,11.00
2023-03-26T12:37:09.759Z,11.20
2023-03-26T12:40:06.739Z,11.30
2023-03-26T12:44:46.406Z,11.40
2023-03-26T12:45:23.202Z,11.20
2023-03-26T12:47:59.728Z,11.00
2023-03-26T12:50:39.548Z,11.10
2023-03-26T12:53:20.777Z,11.10
2023-03-26T12:56:00.440Z,11.20
2023-03-26T12:58:47.958Z,11.20
2023-03-26T13:01:26.645Z,11.00
2023-03-26T13:04:14.512Z,11.00
2023-03-26T13:06:59.049Z,11.10
2023-03-26T13:09:58.610Z,11.20
2023-03-26T13:12:40.531Z,11.30
2023-03-26T13:15:17.889Z,11.40
2023-03-26T13:17:57.071Z,11.50
2023-03-26T13:20:33.090Z,11.60
2023-03-26T13:23:08.306Z,11.80
2023-03-26T13:25:44.403Z,12.00
2023-03-26T13:28:28.491Z,12.20
2023-03-26T13:31:06.174Z,12.40
2023-03-26T13:33:43.860Z,12.80
2023-03-26T13:36:23.760Z,12.40
2023-03-26T13:39:05.067Z,13.30
2023-03-26T13:41:43.862Z,13.50
2023-03-26T13:44:23.136Z,13.80
2023-03-26T13:46:56.256Z,13.80
2023-03-26T13:49:37.413Z,13.90
2023-03-26T13:52:11.442Z,13.90
2023-03-26T13:54:46.070Z,14.00
2023-03-26T13:57:20.103Z,14.00
2023-03-26T13:59:54.534Z,14.10
2023-03-26T14:02:28.637Z,14.20
2023-03-26T14:05:01.320Z,14.20
2023-03-26T14:07:35.676Z,14.10
2023-03-26T14:10:08.887Z,13.80
2023-03-26T14:12:49.427Z,13.60
2023-03-26T14:15:23.574Z,13.40
2023-03-26T14:17:57.810Z,13.20
2023-03-26T14:20:51.470Z,13.00
2023-03-26T14:23:49.880Z,12.80
2023-03-26T14:26:30.302Z,12.50
2023-03-26T14:29:27.038Z,12.40
2023-03-26T14:32:11.232Z,12.40
2023-03-26T14:34:56.654Z,12.60
2023-03-26T14:37:51.653Z,12.70
2023-03-26T14:40:31.180Z,12.70
2023-03-26T14:43:15.371Z,12.50
2023-03-26T14:45:55.208Z,12.50
2023-03-26T14:48:55.478Z,12.40
2023-03-26T14:51:58.868Z,12.30
2023-03-26T14:54:29.891Z,12.30
2023-03-26T14:57:33.169Z,12.30
2023-03-26T15:00:28.709Z,12.20
2023-03-26T15:03:38.901Z,12.20
2023-03-26T15:06:45.429Z,12.20
2023-03-26T15:09:57.416Z,12.20
2023-03-26T15:12:38.701Z,12.20
2023-03-26T15:15:43.056Z,12.20
2023-03-26T15:18:56.458Z,12.30
2023-03-26T15:21:52.810Z,12.40
2023-03-26T15:24:51.007Z,12.30
2023-03-26T15:27:43.201Z,12.20
2023-03-26T15:30:38.814Z,12.30
2023-03-26T15:33:44.098Z,12.40
2023-03-26T15:36:46.835Z,12.50
2023-03-26T15:40:07.865Z,12.70
2023-03-26T15:42:48.009Z,12.80
2023-03-26T15:45:32.060Z,13.00
2023-03-26T15:48:27.396Z,12.90
2023-03-26T15:51:04.454Z,12.90
2023-03-26T15:53:48.961Z,12.80
2023-03-26T15:56:32.869Z,12.70
2023-03-26T15:59:11.245Z,12.60
2023-03-26T16:02:02.669Z,12.90
2023-03-26T16:04:50.883Z,12.60
2023-03-26T16:07:38.903Z,12.50
2023-03-26T16:10:31.572Z,12.50
2023-03-26T16:13:39.201Z,12.40
2023-03-26T16:16:25.973Z,12.00
2023-03-26T16:18:59.569Z,12.20
2023-03-26T16:21:43.312Z,12.10
2023-03-26T16:24:40.943Z,12.10
2023-03-26T16:27:30.284Z,12.00
2023-03-26T16:30:15.821Z,11.90
2023-03-26T16:32:46.838Z,11.80
2023-03-26T16:35:41.599Z,11.70
2023-03-26T16:38:16.052Z,11.70
2023-03-26T16:41:02.400Z,11.70
2023-03-26T16:43:51.535Z,11.60
2023-03-26T16:46:31.632Z,11.50
2023-03-26T16:49:08.305Z,11.50
2023-03-26T16:52:01.419Z,11.50
2023-03-26T16:54:41.009Z,11.50
2023-03-26T16:57:21.179Z,11.80
2023-03-26T17:00:23.449Z,11.40
2023-03-26T17:02:59.997Z,11.40
2023-03-26T17:05:37.268Z,11.40
2023-03-26T17:08:16.366Z,11.50
2023-03-26T17:10:56.651Z,11.50
2023-03-26T17:13:31.041Z,11.40
2023-03-26T17:16:11.207Z,11.40
2023-03-26T17:18:46.999Z,11.40
2023-03-26T17:21:18.830Z,11.40
2023-03-26T17:24:06.826Z,11.30
2023-03-26T17:26:54.736Z,11.20
2023-03-26T17:29:29.900Z,11.40
2023-03-26T17:32:08.679Z,11.20
2023-03-26T17:35:00.484Z,11.20
2023-03-26T17:37:49.600Z,11.20
2023-03-26T17:40:54.804Z,11.20
2023-03-26T17:43:42.945Z,11.20
2023-03-26T17:46:23.244Z,11.30
2023-03-26T17:49:00.290Z,11.40
2023-03-26T17:51:40.302Z,11.30
2023-03-26T17:54:14.588Z,11.40
2023-03-26T17:56:43.179Z,11.50
2023-03-26T17:59:23.106Z,11.40
2023-03-26T18:01:55.747Z,11.40
2023-03-26T18:04:32.255Z,11.50
2023-03-26T18:07:27.777Z,11.40
2023-03-26T18:10:15.790Z,11.40
2023-03-26T18:13:02.888Z,11.10
2023-03-26T18:15:49.902Z,11.10
2023-03-26T18:18:21.456Z,11.20
2023-03-26T18:20:52.321Z,11.40
2023-03-26T18:23:27.384Z,11.00
2023-03-26T18:26:00.128Z,11.00
2023-03-26T18:28:36.127Z,10.90
2023-03-26T18:31:18.565Z,10.90
2023-03-26T18:33:49.293Z,10.90
2023-03-26T18:36:19.673Z,10.80
2023-03-26T18:38:48.972Z,10.70
2023-03-26T18:41:25.132Z,10.60
2023-03-26T18:43:53.241Z,10.60
2023-03-26T18:46:25.805Z,10.40
2023-03-26T18:48:55.633Z,10.40
2023-03-26T18:51:29.530Z,10.40
2023-03-26T18:54:01.744Z,10.30
2023-03-26T18:56:33.829Z,10.20
2023-03-26T18:59:04.402Z,10.20
2023-03-26T19:01:34.169Z,10.20
2023-03-26T19:04:05.796Z,10.20
2023-03-26T19:06:39.653Z,10.20
2023-03-26T19:09:20.070Z,10.10
2023-03-26T19:11:58.210Z,10.10
2023-03-26T19:14:28.590Z,10.00
2023-03-26T19:17:00.566Z,10.00
2023-03-26T19:19:34.037Z,10.00
2023-03-26T19:22:04.981Z,9.90
2023-03-26T19:24:34.101Z,9.90
2023-03-26T19:27:02.833Z,9.80
2023-03-26T19:29:33.902Z,9.80
2023-03-26T19:32:06.727Z,10.00
2023-03-26T19:34:36.038Z,9.60
2023-03-26T19:37:19.107Z,9.50
2023-03-26T19:39:50.193Z,9.10
2023-03-26T19:42:21.021Z,9.50
2023-03-26T19:44:51.261Z,9.60
2023-03-26T19:47:26.831Z,9.80
2023-03-26T19:50:01.812Z,9.50
2023-03-26T19:52:36.420Z,9.40
2023-03-26T19:55:16.613Z,9.50
2023-03-26T19:57:45.177Z,9.40
2023-03-26T20:00:14.615Z,9.40
2023-03-26T20:02:43.598Z,9.40
2023-03-26T20:05:23.058Z,9.40
2023-03-26T20:07:52.780Z,9.40
2023-03-26T20:10:20.750Z,10.50
2023-03-26T20:12:48.797Z,9.40
2023-03-26T20:15:21.234Z,9.40
2023-03-26T20:17:52.599Z,9.40
2023-03-26T20:20:20.990Z,9.40
2023-03-26T20:22:49.532Z,9.40
2023-03-26T20:25:21.111Z,9.70
2023-03-26T20:27:49.115Z,9.30
2023-03-26T20:30:27.478Z,9.20
2023-03-26T20:33:12.833Z,9.20
2023-03-26T20:35:42.747Z,9.20
2023-03-26T20:38:11.405Z,9.20
2023-03-26T20:40:41.386Z,9.20
2023-03-26T20:43:18.409Z,9.20
2023-03-26T20:45:47.138Z,9.20
2023-03-26T20:48:16.414Z,9.20
2023-03-26T20:50:50.823Z,9.20
2023-03-26T20:53:20.517Z,9.30
2023-03-26T20:55:51.714Z,9.30
2023-03-26T20:58:31.068Z,9.30
2023-03-26T21:01:02.467Z,9.30
2023-03-26T21:03:30.919Z,9.30
2023-03-26T21:06:01.317Z,9.30
2023-03-26T21:08:35.335Z,9.30
2023-03-26T21:11:14.159Z,9.30
2023-03-26T21:14:01.069Z,9.30
2023-03-26T21:16:29.919Z,9.30
2023-03-26T21:18:59.015Z,9.30
2023-03-26T21:21:40.740Z,9.30
2023-03-26T21:24:17.151Z,9.30
2023-03-26T21:26:52.367Z,9.40
2023-03-26T21:29:21.367Z,9.30
2023-03-26T21:31:51.082Z,9.40
2023-03-26T21:34:22.434Z,9.30
2023-03-26T21:36:51.881Z,9.30
2023-03-26T21:39:20.616Z,9.30
2023-03-26T21:42:04.854Z,9.20
2023-03-26T21:44:34.467Z,9.10
2023-03-26T21:47:03.104Z,9.10
2023-03-26T21:49:31.628Z,9.10
2023-03-26T21:52:00.281Z,9.10
2023-03-26T21:54:31.417Z,9.20
2023-03-26T21:57:13.497Z,9.10
2023-03-26T21:59:49.838Z,9.10
2023-03-26T22:02:24.221Z,9.10
2023-03-26T22:04:57.504Z,9.20
2023-03-26T22:07:31.365Z,9.30
2023-03-26T22:09:59.641Z,9.10
2023-03-26T22:12:28.869Z,10.00
2023-03-26T22:14:56.959Z,9.20
2023-03-26T22:17:25.041Z,9.20
2023-03-26T22:19:53.039Z,9.20
2023-03-26T22:22:22.117Z,9.20
2023-03-26T22:24:50.174Z,9.10
2023-03-26T22:27:18.183Z,9.50
2023-03-26T22:29:47.586Z,9.10
2023-03-26T22:32:15.567Z,9.30
2023-03-26T22:34:44.952Z,9.10
2023-03-26T22:37:13.590Z,9.20
2023-03-26T22:39:41.532Z,9.10
2023-03-26T22:42:09.538Z,9.10
2023-03-26T22:44:37.460Z,9.00
2023-03-26T22:47:07.290Z,9.10
2023-03-26T22:49:35.398Z,9.00
2023-03-26T22:52:03.256Z,9.10
2023-03-26T22:54:31.132Z,9.10
2023-03-26T22:56:59.112Z,9.00
2023-03-26T22:59:27.812Z,9.10
2023-03-26T23:01:56.213Z,8.90
2023-03-26T23:04:30.363Z,8.90
2023-03-26T23:06:59.733Z,8.90
2023-03-26T23:09:27.823Z,8.90
2023-03-26T23:11:56.428Z,8.90
2023-03-26T23:14:24.888Z,8.90
2023-03-26T23:16:52.833Z,8.80
2023-03-26T23:19:20.874Z,8.80
2023-03-26T23:21:50.281Z,8.70
2023-03-26T23:24:49.529Z,8.70
2023-03-26T23:27:17.929Z,8.70
2023-03-26T23:29:50.943Z,8.70
2023-03-26T23:32:23.397Z,8.70
2023-03-26T23:34:52.874Z,8.60
2023-03-26T23:37:24.061Z,8.70
2023-03-26T23:39:52.647Z,8.70
2023-03-26T23:42:28.704Z,8.70
2023-03-26T23:44:57.840Z,8.70
2023-03-26T23:47:27.201Z,8.70
2023-03-26T23:50:50.638Z,8.70
2023-03-26T23:53:21.155Z,8.70
2023-03-26T23:55:51.155Z,8.60
2023-03-26T23:58:22.327Z,8.60
